createdAt,value
2019-02-23T00:01:56.767Z,49.97
2019-02-23T00:04:42.836Z,49.43
2019-02-23T00:07:28.998Z,46.97
2019-02-23T00:14:15.177Z,52.13
2019-02-23T00:27:14.635Z,60.17
2019-02-23T00:30:35.200Z,64.90
2019-02-23T00:33:45.970Z,56.00
2019-02-23T00:47:16.726Z,46.73
2019-02-23T00:50:01.954Z,45.67
2019-02-23T00:52:47.415Z,45.17
2019-02-23T00:58:21.343Z,46.73
2019-02-23T01:01:06.879Z,45.57
2019-02-23T01:03:52.255Z,48.57
2019-02-23T01:06:37.356Z,48.03
2019-02-23T01:09:22.653Z,45.40
2019-02-23T01:12:07.978Z,42.83
2019-02-23T01:14:53.252Z,45.80
2019-02-23T01:17:38.371Z,54.93
2019-02-23T01:20:23.931Z,57.40
2019-02-23T01:23:09.023Z,59.27
2019-02-23T01:25:54.830Z,62.83
2019-02-23T01:28:40.057Z,68.87
2019-02-23T01:31:25.286Z,67.00
2019-02-23T01:34:11.584Z,56.87
2019-02-23T01:37:02.954Z,53.50
2019-02-23T01:39:53.420Z,52.17
2019-02-23T01:42:44.660Z,54.33
2019-02-23T01:49:00.428Z,55.33
2019-02-23T01:51:46.338Z,54.30
2019-02-23T01:55:54.380Z,54.57
2019-02-23T01:58:27.602Z,49.10
2019-02-23T02:01:13.901Z,51.33
2019-02-23T02:03:59.183Z,58.77
2019-02-23T02:06:47.245Z,59.57
2019-02-23T02:09:57.715Z,53.87
2019-02-23T02:12:48.593Z,47.17
2019-02-23T02:21:33.844Z,45.03
2019-02-23T02:27:31.412Z,44.63
2019-02-23T02:30:16.343Z,41.93
2019-02-23T02:33:05.316Z,44.23
2019-02-23T02:35:51.229Z,44.63
2019-02-23T02:38:36.352Z,45.60
2019-02-23T02:41:24.324Z,45.70
2019-02-23T02:44:09.480Z,48.37
2019-02-23T02:46:54.955Z,48.67
2019-02-23T02:49:40.310Z,48.00
2019-02-23T02:52:25.830Z,49.23
2019-02-23T02:55:11.369Z,51.20
2019-02-23T02:57:57.365Z,51.57
2019-02-23T03:04:30.028Z,51.67
2019-02-23T03:07:15.025Z,53.93
2019-02-23T03:10:00.786Z,54.80
2019-02-23T03:12:45.732Z,58.73
2019-02-23T03:18:38.393Z,52.83
2019-02-23T03:21:23.355Z,55.73
2019-02-23T03:24:09.694Z,55.47
2019-02-23T03:26:55.205Z,55.77
2019-02-23T03:29:40.305Z,52.70
2019-02-23T03:32:25.736Z,53.57
2019-02-23T03:35:11.486Z,53.60
2019-02-23T03:37:56.860Z,59.40
2019-02-23T03:40:42.064Z,59.50
2019-02-23T03:43:27.385Z,56.73
2019-02-23T03:46:12.465Z,53.90
2019-02-23T03:48:57.404Z,55.67
2019-02-23T03:51:43.258Z,56.07
2019-02-23T03:54:28.964Z,55.57
2019-02-23T03:57:14.180Z,51.53
2019-02-23T03:59:59.451Z,48.70
2019-02-23T04:02:45.097Z,48.67
2019-02-23T04:05:30.327Z,51.03
2019-02-23T04:08:15.819Z,49.80
2019-02-23T04:11:01.015Z,47.77
2019-02-23T04:13:46.143Z,48.17
2019-02-23T04:16:31.494Z,48.50
2019-02-23T04:19:16.944Z,54.03
2019-02-23T04:22:02.115Z,50.93
2019-02-23T04:24:47.366Z,47.07
2019-02-23T04:27:32.733Z,47.97
2019-02-23T04:30:20.877Z,47.57
2019-02-23T04:33:11.951Z,45.07
2019-02-23T04:35:57.279Z,40.93
2019-02-23T04:38:42.670Z,41.67
2019-02-23T04:41:41.290Z,44.13
2019-02-23T04:44:29.289Z,41.57
2019-02-23T04:47:51.226Z,43.67
2019-02-23T04:50:36.890Z,40.80
2019-02-23T04:53:22.552Z,42.70
2019-02-23T04:56:10.119Z,38.00
2019-02-23T04:58:55.447Z,39.40
2019-02-23T05:01:40.602Z,38.33
2019-02-23T05:04:25.797Z,40.10
2019-02-23T05:07:11.393Z,38.73
2019-02-23T05:09:56.339Z,44.63
2019-02-23T05:12:41.782Z,40.53
2019-02-23T05:15:38.341Z,38.63
2019-02-23T05:18:23.463Z,37.73
2019-02-23T05:21:10.848Z,38.03
2019-02-23T05:24:05.826Z,39.47
2019-02-23T05:26:51.036Z,46.70
2019-02-23T05:29:36.110Z,51.63
2019-02-23T05:32:21.378Z,55.10
2019-02-23T05:38:36.160Z,44.77
2019-02-23T05:41:26.882Z,35.87
2019-02-23T05:44:12.365Z,36.53
2019-02-23T05:46:57.371Z,38.13
2019-02-23T05:49:42.814Z,37.53
2019-02-23T05:52:27.949Z,41.90
2019-02-23T05:56:12.778Z,43.40
2019-02-23T05:58:55.698Z,40.57
2019-02-23T06:01:40.650Z,42.00
2019-02-23T06:04:26.763Z,42.33
2019-02-23T06:07:14.225Z,41.90
2019-02-23T06:09:59.281Z,52.93
2019-02-23T06:12:44.119Z,45.53
2019-02-23T06:15:31.459Z,46.13
2019-02-23T06:18:19.916Z,47.50
2019-02-23T06:21:05.476Z,48.77
2019-02-23T06:27:43.818Z,47.27
2019-02-23T06:31:30.336Z,47.73
2019-02-23T06:34:16.720Z,50.37
2019-02-23T06:37:02.899Z,47.40
2019-02-23T06:39:49.093Z,49.33
2019-02-23T06:42:34.539Z,49.77
2019-02-23T06:45:19.836Z,47.47
2019-02-23T06:48:05.054Z,53.30
2019-02-23T06:50:51.269Z,55.97
2019-02-23T06:53:44.629Z,53.97
2019-02-23T06:56:30.247Z,52.27
2019-02-23T07:07:13.227Z,62.83
2019-02-23T07:09:59.633Z,60.90
2019-02-23T07:12:52.437Z,64.47
2019-02-23T07:16:14.103Z,67.50
2019-02-23T07:18:33.657Z,55.77
2019-02-23T07:21:18.949Z,56.13
2019-02-23T07:24:04.143Z,56.07
2019-02-23T07:26:49.214Z,54.87
2019-02-23T07:29:34.520Z,59.03
2019-02-23T07:32:19.722Z,58.30
2019-02-23T07:35:06.190Z,51.77
2019-02-23T07:37:51.520Z,47.80
2019-02-23T07:40:36.762Z,45.53
2019-02-23T07:43:21.837Z,41.73
2019-02-23T07:46:07.455Z,38.60
2019-02-23T07:49:12.572Z,39.97
2019-02-23T07:51:57.791Z,35.20
2019-02-23T07:54:43.030Z,28.90
2019-02-23T07:57:28.662Z,28.73
2019-02-23T08:00:33.549Z,31.80
2019-02-23T08:03:36.827Z,31.80
2019-02-23T08:09:58.057Z,77.37
2019-02-23T08:16:57.912Z,34.23
2019-02-23T08:19:42.725Z,31.13
2019-02-23T08:22:37.031Z,21.93
2019-02-23T08:25:15.387Z,19.10
2019-02-23T08:28:00.316Z,15.37
2019-02-23T08:30:45.686Z,16.40
2019-02-23T08:33:30.988Z,11.83
2019-02-23T08:36:26.704Z,11.10
2019-02-23T08:43:04.414Z,12.57
2019-02-23T08:45:49.408Z,12.40
2019-02-23T08:48:34.471Z,12.13
2019-02-23T08:51:20.164Z,13.13
2019-02-23T08:54:05.372Z,15.40
2019-02-23T08:56:50.619Z,14.80
2019-02-23T08:59:35.718Z,15.20
2019-02-23T09:02:21.238Z,13.10
2019-02-23T09:05:08.777Z,14.80
2019-02-23T09:07:53.783Z,13.67
2019-02-23T09:10:56.255Z,11.67
2019-02-23T09:14:44.765Z,15.57
2019-02-23T09:17:17.819Z,12.57
2019-02-23T09:20:05.754Z,12.17
2019-02-23T09:22:59.710Z,12.67
2019-02-23T09:25:38.116Z,12.43
2019-02-23T09:28:23.102Z,12.10
2019-02-23T09:31:08.121Z,11.93
2019-02-23T09:33:53.516Z,11.23
2019-02-23T09:36:38.776Z,12.07
2019-02-23T09:39:23.943Z,12.07
2019-02-23T09:42:09.286Z,10.63
2019-02-23T09:44:54.488Z,12.63
2019-02-23T09:54:48.655Z,12.63
2019-02-23T09:57:33.752Z,11.57
2019-02-23T10:00:19.092Z,11.50
2019-02-23T10:03:04.643Z,15.17
2019-02-23T10:05:59.702Z,12.63
2019-02-23T10:08:48.351Z,11.87
2019-02-23T10:11:33.312Z,12.00
2019-02-23T10:14:18.710Z,11.83
2019-02-23T10:17:03.930Z,11.87
2019-02-23T10:19:49.063Z,11.63
2019-02-23T10:22:34.201Z,12.47
2019-02-23T10:25:19.426Z,12.80
2019-02-23T10:28:04.219Z,11.87
2019-02-23T10:30:49.774Z,9.97
2019-02-23T10:33:37.109Z,10.40
2019-02-23T10:36:22.279Z,10.47
2019-02-23T10:39:07.508Z,9.30
2019-02-23T10:41:52.583Z,7.63
2019-02-23T10:44:37.874Z,8.73
2019-02-23T10:47:22.997Z,9.90
2019-02-23T10:50:11.626Z,9.63
2019-02-23T10:52:56.711Z,10.13
2019-02-23T10:55:41.695Z,8.00
2019-02-23T10:58:27.185Z,9.97
2019-02-23T11:01:12.160Z,10.23
2019-02-23T11:03:57.356Z,9.03
2019-02-23T11:06:42.689Z,10.27
2019-02-23T11:09:29.943Z,10.17
2019-02-23T11:12:15.483Z,11.65
2019-02-23T11:15:00.464Z,12.63
2019-02-23T11:17:45.874Z,11.65
2019-02-23T11:20:31.681Z,11.37
2019-02-23T11:23:18.108Z,10.27
2019-02-23T11:26:03.295Z,15.83
2019-02-23T11:28:48.302Z,13.18
2019-02-23T11:31:33.691Z,14.60
2019-02-23T11:34:18.838Z,13.63
2019-02-23T11:37:04.190Z,16.47
2019-02-23T11:39:49.446Z,15.07
2019-02-23T11:42:34.918Z,9.83
2019-02-23T11:45:21.244Z,16.47
2019-02-23T11:48:06.628Z,17.43
2019-02-23T11:50:52.084Z,17.70
2019-02-23T11:53:37.143Z,18.07
2019-02-23T11:56:22.358Z,19.00
2019-02-23T11:59:07.835Z,18.30
2019-02-23T12:01:54.377Z,17.80
2019-02-23T12:04:39.596Z,13.97
2019-02-23T12:07:24.717Z,14.07
2019-02-23T12:10:15.207Z,10.97
2019-02-23T12:13:00.587Z,13.70
2019-02-23T12:15:45.709Z,10.57
2019-02-23T12:18:31.217Z,13.07
2019-02-23T12:21:16.330Z,14.40
2019-02-23T12:24:06.058Z,11.57
2019-02-23T12:26:48.608Z,12.30
2019-02-23T12:29:33.990Z,11.80
2019-02-23T12:32:19.783Z,10.60
2019-02-23T12:35:10.796Z,10.13
2019-02-23T12:37:56.208Z,10.33
2019-02-23T12:40:41.669Z,11.87
2019-02-23T12:43:26.546Z,11.95
2019-02-23T12:46:11.862Z,13.57
2019-02-23T12:48:57.231Z,13.00
2019-02-23T12:51:43.604Z,14.77
2019-02-23T12:54:29.064Z,15.80
2019-02-23T12:57:16.002Z,12.40
2019-02-23T13:00:01.302Z,11.83
2019-02-23T13:02:46.606Z,11.73
2019-02-23T13:05:31.997Z,12.33
2019-02-23T13:08:17.203Z,12.77
2019-02-23T13:11:02.145Z,11.27
2019-02-23T13:13:54.055Z,11.27
2019-02-23T13:16:39.199Z,10.37
2019-02-23T13:19:47.965Z,11.30
2019-02-23T13:22:49.078Z,10.83
2019-02-23T13:25:44.354Z,11.77
2019-02-23T13:28:42.408Z,10.33
2019-02-23T13:31:49.274Z,10.93
2019-02-23T13:34:47.412Z,10.60
2019-02-23T13:37:57.326Z,10.17
2019-02-23T13:40:48.850Z,10.17
2019-02-23T13:43:50.178Z,11.37
2019-02-23T13:46:44.490Z,10.97
2019-02-23T13:50:03.745Z,13.67
2019-02-23T13:53:04.144Z,11.80
2019-02-23T13:56:08.261Z,11.57
2019-02-23T13:58:57.031Z,10.37
2019-02-23T14:02:01.279Z,11.07
2019-02-23T14:05:01.881Z,11.70
2019-02-23T14:08:02.753Z,12.83
2019-02-23T14:11:10.843Z,11.03
2019-02-23T14:14:17.597Z,13.80
2019-02-23T14:17:21.342Z,15.03
2019-02-23T14:20:30.890Z,11.00
2019-02-23T14:23:31.079Z,11.47
2019-02-23T14:26:31.369Z,12.30
2019-02-23T14:29:25.792Z,12.93
2019-02-23T14:32:17.540Z,13.00
2019-02-23T14:35:06.659Z,18.00
2019-02-23T14:38:10.641Z,19.63
2019-02-23T14:41:04.801Z,14.53
2019-02-23T14:44:12.072Z,15.93
2019-02-23T14:47:28.812Z,15.10
2019-02-23T14:50:37.464Z,13.80
2019-02-23T14:53:39.153Z,13.53
2019-02-23T14:56:50.641Z,12.73
2019-02-23T14:59:57.987Z,18.53
2019-02-23T15:03:06.461Z,12.93
2019-02-23T15:06:04.345Z,14.93
2019-02-23T15:09:08.145Z,12.23
2019-02-23T15:11:56.721Z,15.90
2019-02-23T15:14:57.786Z,21.10
2019-02-23T15:17:48.974Z,17.40
2019-02-23T15:20:43.801Z,14.23
2019-02-23T15:23:38.546Z,15.97
2019-02-23T15:26:38.943Z,15.80
2019-02-23T15:29:37.248Z,14.50
2019-02-23T15:32:52.105Z,13.03
2019-02-23T15:35:46.785Z,14.07
2019-02-23T15:38:38.955Z,15.73
2019-02-23T15:41:50.740Z,15.90
2019-02-23T15:45:00.531Z,17.17
2019-02-23T15:48:04.911Z,17.23
2019-02-23T15:50:50.417Z,15.00
2019-02-23T15:53:35.433Z,14.70
2019-02-23T15:56:20.791Z,14.27
2019-02-23T15:59:05.873Z,21.53
2019-02-23T16:01:50.858Z,20.03
2019-02-23T16:04:35.925Z,28.77
2019-02-23T16:07:23.202Z,29.13
2019-02-23T16:10:08.662Z,22.37
2019-02-23T16:12:53.844Z,21.70
2019-02-23T16:15:39.019Z,23.37
2019-02-23T16:18:24.271Z,23.20
2019-02-23T16:21:09.242Z,26.70
2019-02-23T16:23:56.494Z,28.07
2019-02-23T16:26:42.185Z,31.63
2019-02-23T16:29:27.855Z,27.23
2019-02-23T16:32:12.680Z,21.70
2019-02-23T16:34:57.496Z,16.63
2019-02-23T16:37:42.567Z,18.10
2019-02-23T16:40:27.864Z,19.83
2019-02-23T16:43:13.950Z,27.07
2019-02-23T16:45:59.050Z,28.57
2019-02-23T16:48:44.435Z,29.50
2019-02-23T16:51:29.615Z,24.60
2019-02-23T16:54:15.258Z,21.57
2019-02-23T16:57:00.543Z,16.87
2019-02-23T16:59:45.791Z,15.60
2019-02-23T17:02:31.034Z,15.40
2019-02-23T17:05:16.351Z,15.30
2019-02-23T17:08:01.997Z,15.20
2019-02-23T17:10:47.374Z,15.03
2019-02-23T17:13:32.563Z,15.70
2019-02-23T17:16:18.065Z,14.93
2019-02-23T17:19:04.388Z,16.03
2019-02-23T17:21:49.913Z,17.13
2019-02-23T17:24:35.216Z,15.37
2019-02-23T17:27:20.750Z,16.27
2019-02-23T17:30:08.459Z,16.10
2019-02-23T17:33:13.452Z,15.93
2019-02-23T17:35:59.572Z,16.07
2019-02-23T17:38:45.412Z,16.37
2019-02-23T17:41:31.177Z,15.03
2019-02-23T17:44:16.191Z,15.87
2019-02-23T17:47:01.619Z,17.43
2019-02-23T17:49:47.542Z,15.97
2019-02-23T17:52:33.562Z,18.13
2019-02-23T17:55:18.424Z,22.30
2019-02-23T17:58:03.753Z,23.27
2019-02-23T18:00:51.852Z,29.70
2019-02-23T18:03:40.192Z,30.53
2019-02-23T18:06:25.265Z,32.00
2019-02-23T18:09:11.742Z,31.67
2019-02-23T18:11:59.389Z,31.70
2019-02-23T18:14:47.468Z,38.60
2019-02-23T18:17:34.989Z,37.27
2019-02-23T18:20:24.910Z,30.13
2019-02-23T18:23:12.383Z,34.07
2019-02-23T18:25:59.189Z,31.50
2019-02-23T18:28:47.855Z,30.27
2019-02-23T18:31:33.555Z,32.87
2019-02-23T18:34:21.274Z,28.30
2019-02-23T18:37:08.499Z,29.57
2019-02-23T18:39:55.942Z,28.10
2019-02-23T18:42:41.007Z,26.57
2019-02-23T18:45:26.700Z,25.53
2019-02-23T18:48:11.343Z,26.03
2019-02-23T18:50:56.621Z,28.00
2019-02-23T18:53:42.201Z,28.00
2019-02-23T18:56:29.668Z,30.07
2019-02-23T18:59:15.274Z,29.67
2019-02-23T19:02:00.594Z,29.07
2019-02-23T19:04:46.071Z,27.50
2019-02-23T19:07:30.878Z,26.87
2019-02-23T19:10:16.518Z,27.33
2019-02-23T19:13:08.605Z,23.53
2019-02-23T19:15:54.477Z,22.43
2019-02-23T19:18:39.476Z,25.50
2019-02-23T19:21:24.643Z,25.07
2019-02-23T19:24:10.173Z,25.17
2019-02-23T19:26:56.712Z,24.17
2019-02-23T19:29:41.936Z,27.23
2019-02-23T19:32:27.194Z,26.73
2019-02-23T19:35:12.373Z,23.77
2019-02-23T19:37:58.761Z,25.97
2019-02-23T19:40:43.980Z,28.13
2019-02-23T19:43:29.259Z,28.47
2019-02-23T19:46:14.217Z,33.93
2019-02-23T19:48:59.402Z,25.53
2019-02-23T19:51:45.063Z,33.00
2019-02-23T19:54:30.257Z,32.23
2019-02-23T19:57:16.253Z,30.93
2019-02-23T20:00:01.670Z,30.50
2019-02-23T20:02:46.626Z,26.83
2019-02-23T20:05:32.446Z,27.50
2019-02-23T20:08:19.117Z,28.47
2019-02-23T20:11:04.425Z,30.57
2019-02-23T20:13:49.410Z,30.53
2019-02-23T20:16:35.380Z,33.87
2019-02-23T20:19:20.733Z,33.03
2019-02-23T20:22:05.963Z,33.50
2019-02-23T20:24:50.942Z,29.53
2019-02-23T20:27:36.316Z,28.03
2019-02-23T20:30:21.698Z,30.53
2019-02-23T20:33:06.632Z,27.77
2019-02-23T20:35:52.138Z,28.80
2019-02-23T20:38:37.224Z,28.53
2019-02-23T20:41:23.457Z,27.77
2019-02-23T20:44:08.704Z,30.10
2019-02-23T20:46:54.843Z,29.13
2019-02-23T20:49:40.104Z,30.77
2019-02-23T20:52:25.783Z,31.93
2019-02-23T20:55:10.818Z,30.93
2019-02-23T20:57:57.374Z,29.30
2019-02-23T21:00:42.719Z,30.60
2019-02-23T21:03:27.599Z,29.67
2019-02-23T21:06:13.207Z,28.00
2019-02-23T21:08:58.343Z,25.87
2019-02-23T21:11:43.871Z,27.83
2019-02-23T21:14:29.228Z,29.37
2019-02-23T21:17:14.355Z,26.97
2019-02-23T21:19:59.992Z,26.77
2019-02-23T21:22:45.781Z,25.80
2019-02-23T21:25:31.388Z,27.30
2019-02-23T21:28:19.342Z,25.77
2019-02-23T21:31:04.807Z,27.17
2019-02-23T21:33:49.868Z,24.30
2019-02-23T21:36:35.300Z,25.63
2019-02-23T21:39:20.552Z,28.60
2019-02-23T21:42:08.324Z,26.90
2019-02-23T21:44:53.318Z,23.47
2019-02-23T21:47:38.919Z,22.93
2019-02-23T21:50:24.512Z,26.40
2019-02-23T21:53:09.858Z,25.87
2019-02-23T21:55:54.942Z,25.30
2019-02-23T21:59:01.748Z,27.87
2019-02-23T22:01:46.920Z,26.30
2019-02-23T22:04:33.133Z,24.53
2019-02-23T22:07:20.016Z,21.97
2019-02-23T22:10:07.119Z,25.27
2019-02-23T22:12:52.683Z,24.23
2019-02-23T22:15:37.672Z,27.53
2019-02-23T22:18:23.079Z,23.37
2019-02-23T22:21:08.229Z,24.60
2019-02-23T22:23:53.861Z,25.00
2019-02-23T22:26:38.791Z,25.50
2019-02-23T22:29:26.576Z,23.50
2019-02-23T22:32:11.460Z,25.03
2019-02-23T22:34:56.643Z,25.37
2019-02-23T22:37:44.185Z,24.57
2019-02-23T22:40:29.530Z,24.47
2019-02-23T22:43:17.192Z,26.37
2019-02-23T22:46:03.067Z,25.53
2019-02-23T22:48:48.279Z,24.70
2019-02-23T22:51:33.641Z,24.00
2019-02-23T22:54:18.735Z,23.37
2019-02-23T22:57:05.515Z,23.97
2019-02-23T22:59:53.004Z,23.40
2019-02-23T23:02:40.305Z,24.47
2019-02-23T23:05:25.792Z,24.17
2019-02-23T23:08:11.111Z,25.03
2019-02-23T23:10:56.492Z,25.30
2019-02-23T23:13:41.845Z,24.90
2019-02-23T23:16:26.985Z,25.10
2019-02-23T23:19:12.984Z,24.47
2019-02-23T23:21:59.985Z,23.53
2019-02-23T23:24:45.226Z,24.90
2019-02-23T23:27:30.780Z,21.07
2019-02-23T23:30:15.704Z,24.13
2019-02-23T23:33:01.335Z,24.63
2019-02-23T23:35:46.556Z,24.63
2019-02-23T23:38:31.718Z,23.93
2019-02-23T23:41:16.782Z,23.27
2019-02-23T23:44:02.071Z,24.40
2019-02-23T23:46:47.718Z,24.33
2019-02-23T23:49:32.626Z,23.30
2019-02-23T23:52:17.780Z,24.97
2019-02-23T23:55:24.741Z,24.30
2019-02-23T23:58:10.879Z,24.60
